Time;durP1;ratioP1;P1;durP2;ratioP2;P2;SDS_P1;SDS_P2;PMS_P1;PMS_P2;Temp;Humidity;BMP_temperature;BMP_pressure;BME280_temperature;BME280_humidity;BME280_pressure;Samples;Min_cycle;Max_cycle;Signal;HPM_P1;HPM_P2
2022/09/28 00:00:59;;;;;;;7.10;4.47;;;;;;;;;;5010501;28;20054;-71
2022/09/28 00:03:26;;;;;;;8.15;4.95;;;;;;;;;;5006161;28;20110;-71
2022/09/28 00:05:59;;;;;;;7.60;5.15;;;;;;;;;;5008511;28;20506;-70
2022/09/28 00:08:25;;;;;;;6.63;4.50;;;;;;;;;;5009813;28;20062;-71
2022/09/28 00:10:54;;;;;;;8.75;5.35;;;;;;;;;;5010930;28;20131;-70
2022/09/28 00:13:21;;;;;;;10.15;5.35;;;;;;;;;;5012060;28;20577;-71
2022/09/28 00:15:58;;;;;;;7.32;4.45;;;;;;;;;;5010939;28;20592;-71
2022/09/28 00:18:25;;;;;;;6.70;4.55;;;;;;;;;;5010457;28;20056;-70
2022/09/28 00:20:58;;;;;;;7.68;4.88;;;;;;;;;;5008627;28;20050;-70
2022/09/28 00:23:24;;;;;;;7.88;4.22;;;;;;;;;;5010181;28;20061;-71
2022/09/28 00:25:51;;;;;;;10.00;4.43;;;;;;;;;;5010594;28;20058;-71
2022/09/28 00:28:17;;;;;;;7.22;4.18;;;;;;;;;;5008955;28;20057;-71
2022/09/28 00:30:43;;;;;;;8.77;4.63;;;;;;;;;;5010823;28;20058;-70
2022/09/28 00:33:09;;;;;;;9.48;4.45;;;;;;;;;;5010163;28;20055;-71
2022/09/28 00:35:36;;;;;;;6.53;4.30;;;;;;;;;;5008340;28;20117;-71
2022/09/28 00:38:02;;;;;;;6.90;4.68;;;;;;;;;;5009560;28;20061;-70
2022/09/28 00:40:28;;;;;;;11.02;5.15;;;;;;;;;;5011130;28;20541;-71
2022/09/28 00:42:55;;;;;;;10.23;4.90;;;;;;;;;;5011245;28;20050;-71
2022/09/28 00:45:24;;;;;;;7.07;4.10;;;;;;;;;;5012871;28;20553;-71
2022/09/28 00:47:54;;;;;;;6.90;4.45;;;;;;;;;;5013227;28;20054;-71
2022/09/28 00:50:32;;;;;;;7.35;3.78;;;;;;;;;;5012536;28;20054;-71
2022/09/28 00:53:01;;;;;;;6.75;4.20;;;;;;;;;;4999028;28;20058;-71
2022/09/28 00:55:38;;;;;;;6.07;4.18;;;;;;;;;;5012806;28;20514;-71
2022/09/28 00:58:07;;;;;;;6.80;3.47;;;;;;;;;;5012367;28;20065;-70
2022/09/28 01:00:34;;;;;;;7.28;4.13;;;;;;;;;;5012046;28;20087;-71
2022/09/28 01:03:00;;;;;;;4.75;3.85;;;;;;;;;;5006834;28;20093;-71
2022/09/28 01:05:26;;;;;;;5.30;3.80;;;;;;;;;;5014044;28;20103;-71
2022/09/28 01:07:54;;;;;;;9.43;3.83;;;;;;;;;;5002524;28;20106;-71
2022/09/28 01:10:20;;;;;;;8.02;3.90;;;;;;;;;;5014420;28;20058;-71
2022/09/28 01:12:46;;;;;;;5.53;3.80;;;;;;;;;;5013110;28;20058;-71
2022/09/28 01:15:14;;;;;;;4.55;3.40;;;;;;;;;;5011393;28;20501;-71
2022/09/28 01:17:43;;;;;;;6.55;3.20;;;;;;;;;;5014613;28;20058;-71
2022/09/28 01:20:09;;;;;;;4.45;3.38;;;;;;;;;;5011611;28;20054;-71
2022/09/28 01:22:45;;;;;;;4.75;3.45;;;;;;;;;;5012380;28;20054;-71
2022/09/28 01:25:11;;;;;;;;;;;;;;;;;;5012638;28;20062;-71
2022/09/28 01:27:37;;;;;;;;;;;;;;;;;;5011400;28;47044;-70
2022/09/28 01:30:03;;;;;;;;;;;;;;;;;;5012358;28;43945;-71
2022/09/28 01:32:30;;;;;;;;;;;;;;;;;;5009650;28;45732;-71
2022/09/28 01:35:00;;;;;;;8.02;2.72;;;;;;;;;;5005634;28;47332;-70
2022/09/28 01:37:31;;;;;;;4.68;2.90;;;;;;;;;;5003996;28;20058;-70
2022/09/28 01:40:00;;;;;;;5.00;2.78;;;;;;;;;;5013847;28;20585;-71
2022/09/28 01:42:28;;;;;;;7.35;2.90;;;;;;;;;;5012896;28;20082;-71
2022/09/28 01:44:59;;;;;;;3.10;2.80;;;;;;;;;;5010847;28;20054;-70
2022/09/28 01:47:25;;;;;;;3.80;2.80;;;;;;;;;;5011893;28;20058;-70
2022/09/28 01:49:56;;;;;;;5.80;3.03;;;;;;;;;;5013584;28;20556;-71
2022/09/28 01:52:22;;;;;;;4.13;2.88;;;;;;;;;;5009383;28;20133;-70
2022/09/28 01:54:52;;;;;;;8.50;3.33;;;;;;;;;;5011682;28;20058;-70
2022/09/28 01:57:31;;;;;;;4.60;2.90;;;;;;;;;;5009068;28;20093;-70
2022/09/28 02:00:05;;;;;;;4.80;3.33;;;;;;;;;;5009390;28;20113;-70
2022/09/28 02:02:34;;;;;;;5.90;3.08;;;;;;;;;;5013478;28;20117;-70
2022/09/28 02:05:06;;;;;;;6.15;3.13;;;;;;;;;;5011303;28;20054;-70
2022/09/28 02:07:41;;;;;;;4.82;3.42;;;;;;;;;;5012268;28;20046;-70
2022/09/28 02:10:12;;;;;;;5.60;3.03;;;;;;;;;;5012416;28;20054;-70
2022/09/28 02:12:41;;;;;;;4.20;2.90;;;;;;;;;;5012481;28;20059;-70
2022/09/28 02:15:19;;;;;;;3.95;3.20;;;;;;;;;;5011527;28;20105;-70
2022/09/28 02:17:45;;;;;;;7.82;3.08;;;;;;;;;;5012791;28;20054;-70
2022/09/28 02:20:12;;;;;;;4.43;2.80;;;;;;;;;;5011465;28;20058;-70
2022/09/28 02:22:42;;;;;;;5.88;3.40;;;;;;;;;;5012025;28;20058;-70
2022/09/28 02:25:28;;;;;;;6.63;4.55;;;;;;;;;;5012199;28;20077;-70
2022/09/28 02:27:54;;;;;;;5.18;3.75;;;;;;;;;;5010413;28;20046;-70
2022/09/28 02:30:21;;;;;;;4.05;3.40;;;;;;;;;;5012161;28;20564;-70
2022/09/28 02:32:49;;;;;;;6.95;3.60;;;;;;;;;;5008448;28;20055;-70
2022/09/28 02:35:17;;;;;;;7.13;4.00;;;;;;;;;;5004265;28;20055;-70
2022/09/28 02:37:43;;;;;;;4.40;3.75;;;;;;;;;;5011284;28;20058;-69
2022/09/28 02:40:14;;;;;;;7.10;4.22;;;;;;;;;;5012750;28;20058;-70
2022/09/28 02:42:50;;;;;;;6.28;4.25;;;;;;;;;;5012115;28;20047;-70
2022/09/28 02:45:36;;;;;;;5.35;3.55;;;;;;;;;;5011778;28;20058;-70
2022/09/28 02:48:20;;;;;;;8.85;4.53;;;;;;;;;;5009596;28;20073;-70
2022/09/28 02:51:06;;;;;;;6.40;3.80;;;;;;;;;;5011821;28;20226;-70
2022/09/28 02:53:32;;;;;;;8.98;4.75;;;;;;;;;;5008820;28;20519;-70
2022/09/28 02:56:11;;;;;;;8.52;4.32;;;;;;;;;;5009425;28;20113;-70
2022/09/28 02:58:40;;;;;;;6.57;4.00;;;;;;;;;;5000880;28;20054;-70
2022/09/28 03:01:06;;;;;;;7.22;3.83;;;;;;;;;;5010578;28;20113;-71
2022/09/28 03:03:32;;;;;;;8.43;3.58;;;;;;;;;;5012107;28;20082;-71
2022/09/28 03:06:02;;;;;;;9.93;4.15;;;;;;;;;;5005716;28;20062;-70
2022/09/28 03:08:32;;;;;;;5.68;3.78;;;;;;;;;;5012212;28;20062;-70
2022/09/28 03:11:01;;;;;;;5.07;3.22;;;;;;;;;;5011703;28;20073;-70
2022/09/28 03:13:27;;;;;;;6.97;3.63;;;;;;;;;;5011426;28;20564;-70
2022/09/28 03:16:07;;;;;;;5.72;3.47;;;;;;;;;;5010486;28;20058;-70
2022/09/28 03:18:33;;;;;;;5.82;2.75;;;;;;;;;;5010565;28;20062;-71
2022/09/28 03:21:00;;;;;;;6.15;3.13;;;;;;;;;;5009623;28;20109;-70
2022/09/28 03:23:26;;;;;;;3.13;2.78;;;;;;;;;;5011384;28;20050;-70
2022/09/28 03:25:53;;;;;;;5.38;2.70;;;;;;;;;;5008283;28;20059;-71
2022/09/28 03:28:20;;;;;;;6.90;2.47;;;;;;;;;;5008551;28;20058;-71
2022/09/28 03:30:47;;;;;;;6.72;3.08;;;;;;;;;;5011855;28;20050;-70
2022/09/28 03:33:13;;;;;;;8.77;2.67;;;;;;;;;;5010568;28;20059;-70
2022/09/28 03:35:39;;;;;;;2.42;2.00;;;;;;;;;;5010868;28;20055;-71
2022/09/28 03:38:05;;;;;;;2.38;2.05;;;;;;;;;;5011294;28;20056;-70
2022/09/28 03:40:32;;;;;;;2.60;1.77;;;;;;;;;;5011788;28;20054;-71
2022/09/28 03:43:01;;;;;;;3.22;1.85;;;;;;;;;;5007475;28;20538;-70
2022/09/28 03:45:27;;;;;;;2.40;1.98;;;;;;;;;;5012292;28;20482;-70
2022/09/28 03:47:53;;;;;;;11.23;2.00;;;;;;;;;;5010117;28;20102;-70
2022/09/28 03:50:20;;;;;;;4.88;1.80;;;;;;;;;;5010388;28;20104;-71
2022/09/28 03:52:46;;;;;;;2.33;1.58;;;;;;;;;;5007963;28;20062;-70
2022/09/28 03:55:12;;;;;;;3.22;1.35;;;;;;;;;;5011615;28;20113;-70
2022/09/28 03:57:39;;;;;;;1.33;1.23;;;;;;;;;;5009376;28;20109;-71
2022/09/28 04:00:05;;;;;;;2.60;1.30;;;;;;;;;;5007176;28;20058;-70
2022/09/28 04:02:33;;;;;;;2.50;1.80;;;;;;;;;;5009421;28;20054;-70
2022/09/28 04:04:59;;;;;;;2.40;1.48;;;;;;;;;;5009975;28;20058;-70
2022/09/28 04:07:26;;;;;;;2.95;1.15;;;;;;;;;;5009003;28;20565;-71
2022/09/28 04:09:56;;;;;;;3.13;1.33;;;;;;;;;;5011077;28;20577;-70
2022/09/28 04:12:22;;;;;;;1.10;0.95;;;;;;;;;;5007481;28;20066;-70
2022/09/28 04:14:49;;;;;;;2.65;1.08;;;;;;;;;;5009812;28;20117;-70
2022/09/28 04:17:15;;;;;;;1.30;1.20;;;;;;;;;;5010368;28;21032;-71
2022/09/28 04:19:41;;;;;;;2.22;1.10;;;;;;;;;;5008121;28;20628;-70
2022/09/28 04:22:07;;;;;;;2.65;1.40;;;;;;;;;;5003868;28;20050;-70
2022/09/28 04:24:34;;;;;;;3.15;0.88;;;;;;;;;;5007424;28;20108;-70
2022/09/28 04:29:46;;;;;;;2.70;1.10;;;;;;;;;;5010226;28;20055;-70
2022/09/28 04:32:12;;;;;;;2.88;1.10;;;;;;;;;;5010267;28;20062;-70
2022/09/28 04:34:38;;;;;;;1.65;0.98;;;;;;;;;;5009440;28;20054;-70
2022/09/28 04:37:09;;;;;;;2.03;1.10;;;;;;;;;;5011017;28;20058;-70
2022/09/28 04:39:35;;;;;;;1.73;1.00;;;;;;;;;;5010199;28;20054;-70
2022/09/28 04:42:02;;;;;;;1.08;1.00;;;;;;;;;;5009820;28;20050;-70
2022/09/28 04:44:28;;;;;;;1.75;1.48;;;;;;;;;;5009124;28;20062;-70
2022/09/28 04:46:54;;;;;;;1.80;1.13;;;;;;;;;;5009594;28;20054;-70
2022/09/28 04:49:21;;;;;;;6.10;1.52;;;;;;;;;;5007387;28;20054;-70
2022/09/28 04:51:47;;;;;;;2.90;0.90;;;;;;;;;;5009079;28;20058;-71
2022/09/28 04:54:13;;;;;;;1.30;1.10;;;;;;;;;;5010647;28;20431;-71
2022/09/28 04:56:40;;;;;;;6.05;1.25;;;;;;;;;;5008926;28;20552;-71
2022/09/28 04:59:06;;;;;;;1.00;0.90;;;;;;;;;;5010153;28;20058;-71
2022/09/28 05:01:33;;;;;;;1.83;1.05;;;;;;;;;;5010287;28;20058;-71
2022/09/28 05:04:00;;;;;;;3.33;1.33;;;;;;;;;;5010302;28;20073;-70
2022/09/28 05:06:29;;;;;;;2.67;0.93;;;;;;;;;;5006768;28;20058;-71
2022/09/28 05:08:56;;;;;;;2.45;1.00;;;;;;;;;;5010578;28;20058;-70
2022/09/28 05:11:22;;;;;;;1.30;1.20;;;;;;;;;;5010485;28;20108;-71
2022/09/28 05:13:49;;;;;;;1.48;1.02;;;;;;;;;;5009369;28;20066;-70
2022/09/28 05:16:15;;;;;;;8.20;1.55;;;;;;;;;;5004716;28;20054;-71
2022/09/28 05:18:42;;;;;;;1.15;1.05;;;;;;;;;;5010546;28;20054;-71
2022/09/28 05:21:12;;;;;;;1.20;1.10;;;;;;;;;;5010035;28;20051;-71
2022/09/28 05:23:39;;;;;;;1.00;1.00;;;;;;;;;;5009760;28;20101;-71
2022/09/28 05:26:05;;;;;;;3.30;1.10;;;;;;;;;;5009516;28;20062;-70
2022/09/28 05:28:32;;;;;;;2.63;1.20;;;;;;;;;;5009296;28;20454;-70
2022/09/28 05:30:59;;;;;;;2.95;1.50;;;;;;;;;;5013370;28;20077;-71
2022/09/28 05:33:26;;;;;;;1.52;1.42;;;;;;;;;;5009204;28;20050;-70
2022/09/28 05:35:53;;;;;;;2.67;1.08;;;;;;;;;;5014369;28;20537;-70
2022/09/28 05:38:24;;;;;;;1.30;0.90;;;;;;;;;;5012882;28;20085;-70
2022/09/28 05:40:51;;;;;;;1.25;1.10;;;;;;;;;;5013920;28;20058;-70
2022/09/28 05:43:17;;;;;;;2.80;1.00;;;;;;;;;;5013226;28;20153;-71
2022/09/28 05:45:43;;;;;;;1.73;1.33;;;;;;;;;;5011252;28;20054;-71
2022/09/28 05:48:10;;;;;;;4.05;1.83;;;;;;;;;;5002120;28;20888;-71
2022/09/28 05:50:36;;;;;;;1.70;1.17;;;;;;;;;;5005441;28;20051;-68
2022/09/28 05:53:04;;;;;;;1.92;1.30;;;;;;;;;;5004926;28;20158;-69
2022/09/28 05:55:31;;;;;;;1.30;1.17;;;;;;;;;;5013571;28;20161;-69
2022/09/28 05:58:01;;;;;;;2.13;1.17;;;;;;;;;;5011870;28;20055;-70
2022/09/28 06:00:28;;;;;;;1.90;1.30;;;;;;;;;;5012433;28;20108;-71
2022/09/28 06:02:59;;;;;;;1.85;1.35;;;;;;;;;;5012557;28;20054;-72
2022/09/28 06:05:26;;;;;;;4.15;1.30;;;;;;;;;;5013773;28;20056;-73
2022/09/28 06:07:56;;;;;;;1.38;1.25;;;;;;;;;;5013339;28;20058;-72
2022/09/28 06:10:23;;;;;;;1.30;1.20;;;;;;;;;;5012677;28;20054;-72
2022/09/28 06:12:53;;;;;;;1.00;0.90;;;;;;;;;;5013263;28;20066;-72
2022/09/28 06:15:20;;;;;;;1.55;1.13;;;;;;;;;;5011009;28;20059;-71
2022/09/28 06:17:47;;;;;;;1.33;1.00;;;;;;;;;;5010565;28;20136;-71
2022/09/28 06:20:13;;;;;;;1.65;1.30;;;;;;;;;;5006834;28;20573;-71
2022/09/28 06:22:39;;;;;;;2.67;1.10;;;;;;;;;;5012366;28;20522;-72
2022/09/28 06:25:06;;;;;;;1.30;1.20;;;;;;;;;;5013764;28;20058;-69
2022/09/28 06:27:33;;;;;;;1.98;1.35;;;;;;;;;;5005814;28;20085;-69
2022/09/28 06:30:01;;;;;;;1.02;0.93;;;;;;;;;;5011473;28;20058;-69
2022/09/28 06:32:28;;;;;;;1.92;1.25;;;;;;;;;;5001354;28;20054;-69
2022/09/28 06:34:55;;;;;;;0.90;0.90;;;;;;;;;;4999548;28;20580;-69
2022/09/28 06:37:21;;;;;;;2.70;1.30;;;;;;;;;;5011355;28;20509;-69
2022/09/28 06:39:48;;;;;;;2.38;1.45;;;;;;;;;;5010260;28;20109;-69
2022/09/28 06:42:17;;;;;;;2.22;1.20;;;;;;;;;;5012510;28;20054;-69
2022/09/28 06:44:45;;;;;;;1.40;1.30;;;;;;;;;;5013008;28;20054;-70
2022/09/28 06:47:11;;;;;;;1.50;1.08;;;;;;;;;;5012613;28;20541;-70
2022/09/28 06:49:37;;;;;;;4.50;1.10;;;;;;;;;;5012953;28;20058;-69
2022/09/28 06:52:03;;;;;;;2.17;1.30;;;;;;;;;;5011406;28;20061;-71
2022/09/28 06:54:30;;;;;;;1.38;1.27;;;;;;;;;;5013393;28;20105;-70
2022/09/28 06:56:56;;;;;;;1.95;1.05;;;;;;;;;;5009226;28;20054;-70
2022/09/28 06:59:22;;;;;;;2.58;2.15;;;;;;;;;;5008082;28;20050;-69
2022/09/28 07:01:49;;;;;;;3.08;1.42;;;;;;;;;;5009806;28;20054;-68
2022/09/28 07:04:15;;;;;;;1.75;1.30;;;;;;;;;;5007462;28;20481;-69
2022/09/28 07:06:47;;;;;;;3.08;1.75;;;;;;;;;;5010744;28;20494;-68
2022/09/28 07:09:13;;;;;;;1.60;1.23;;;;;;;;;;5011781;28;20070;-68
2022/09/28 07:11:57;;;;;;;3.25;1.52;;;;;;;;;;5007723;28;20495;-69
2022/09/28 07:14:24;;;;;;;2.00;1.48;;;;;;;;;;5010071;28;20065;-68
2022/09/28 07:17:10;;;;;;;3.08;1.30;;;;;;;;;;5002562;28;20078;-68
2022/09/28 07:19:39;;;;;;;3.92;1.52;;;;;;;;;;5009871;28;20058;-69
2022/09/28 07:22:05;;;;;;;2.15;1.50;;;;;;;;;;5012231;28;20105;-69
2022/09/28 07:24:32;;;;;;;1.98;1.42;;;;;;;;;;5002904;28;20089;-69
2022/09/28 07:26:58;;;;;;;1.88;1.40;;;;;;;;;;4992925;28;20514;-70
2022/09/28 07:29:24;;;;;;;1.60;1.25;;;;;;;;;;5011784;28;20050;-69
2022/09/28 07:31:52;;;;;;;3.83;1.73;;;;;;;;;;5008988;28;20105;-69
2022/09/28 07:34:19;;;;;;;2.45;1.20;;;;;;;;;;5006236;28;20525;-69
2022/09/28 07:36:45;;;;;;;3.35;1.60;;;;;;;;;;5011633;28;20652;-69
2022/09/28 07:39:11;;;;;;;3.13;1.42;;;;;;;;;;5011669;28;20141;-68
2022/09/28 07:41:38;;;;;;;3.03;1.50;;;;;;;;;;5006934;28;20050;-68
2022/09/28 07:44:04;;;;;;;2.95;1.40;;;;;;;;;;5005719;28;20117;-68
2022/09/28 07:46:32;;;;;;;3.25;1.40;;;;;;;;;;5010635;28;20058;-69
2022/09/28 07:48:58;;;;;;;2.90;1.60;;;;;;;;;;5010904;28;20058;-68
2022/09/28 07:51:24;;;;;;;3.30;1.50;;;;;;;;;;5010960;28;20478;-67
2022/09/28 07:53:53;;;;;;;3.70;1.73;;;;;;;;;;5011745;28;20069;-69
2022/09/28 07:56:19;;;;;;;2.78;1.30;;;;;;;;;;5009748;28;20537;-69
2022/09/28 07:58:46;;;;;;;2.08;1.60;;;;;;;;;;5010643;28;20058;-68
2022/09/28 08:01:15;;;;;;;4.72;1.98;;;;;;;;;;5006332;28;20055;-68
2022/09/28 08:03:46;;;;;;;1.35;1.25;;;;;;;;;;5009705;28;20058;-69
2022/09/28 08:06:15;;;;;;;3.35;1.40;;;;;;;;;;5010858;28;20054;-67
2022/09/28 08:08:43;;;;;;;2.03;1.40;;;;;;;;;;5005830;28;20105;-69
2022/09/28 08:11:10;;;;;;;1.33;1.20;;;;;;;;;;5008844;28;20116;-69
2022/09/28 08:13:37;;;;;;;2.97;1.52;;;;;;;;;;5007629;28;20062;-69
2022/09/28 08:16:04;;;;;;;2.50;1.58;;;;;;;;;;5009221;28;20058;-69
2022/09/28 08:18:30;;;;;;;5.80;1.55;;;;;;;;;;5007109;28;20505;-69
2022/09/28 08:23:42;;;;;;;4.00;1.55;;;;;;;;;;5010597;28;20062;-69
2022/09/28 08:26:08;;;;;;;4.53;2.30;;;;;;;;;;5003294;28;20062;-68
2022/09/28 08:28:41;;;;;;;3.70;1.60;;;;;;;;;;5011236;28;20058;-69
2022/09/28 08:31:07;;;;;;;2.05;1.33;;;;;;;;;;5012020;28;20059;-68
2022/09/28 08:33:34;;;;;;;4.80;1.45;;;;;;;;;;5011552;28;20064;-69
2022/09/28 08:36:01;;;;;;;2.40;2.00;;;;;;;;;;5009617;28;20510;-68
2022/09/28 08:38:28;;;;;;;4.45;1.45;;;;;;;;;;5008272;28;20109;-68
2022/09/28 08:41:13;;;;;;;2.50;1.55;;;;;;;;;;5009208;28;20112;-68
2022/09/28 08:43:44;;;;;;;4.37;1.33;;;;;;;;;;5001738;28;20057;-68
2022/09/28 08:46:12;;;;;;;1.92;1.08;;;;;;;;;;5004059;28;20743;-70
2022/09/28 08:48:47;;;;;;;5.07;1.77;;;;;;;;;;5008210;28;20051;-71
2022/09/28 08:52:04;;;;;;;1.55;0.70;;;;;;;;;;5004753;28;20050;-70
2022/09/28 08:54:50;;;;;;;1.52;1.17;;;;;;;;;;4978571;28;20117;-70
2022/09/28 08:57:21;;;;;;;0.95;0.90;;;;;;;;;;5006181;28;20059;-70
2022/09/28 08:59:54;;;;;;;1.95;0.90;;;;;;;;;;5003437;28;20059;-70
2022/09/28 09:02:32;;;;;;;1.48;0.93;;;;;;;;;;5007902;28;20109;-69
2022/09/28 09:05:01;;;;;;;1.13;0.80;;;;;;;;;;5013671;28;20157;-70
2022/09/28 09:07:27;;;;;;;1.45;0.85;;;;;;;;;;5012554;28;20058;-71
2022/09/28 09:10:02;;;;;;;0.75;0.75;;;;;;;;;;5013162;28;20058;-70
2022/09/28 09:12:37;;;;;;;1.80;1.50;;;;;;;;;;5010715;28;21008;-70
2022/09/28 09:15:42;;;;;;;1.02;0.50;;;;;;;;;;5014957;28;20062;-70
2022/09/28 09:18:16;;;;;;;1.48;0.63;;;;;;;;;;4953942;28;20134;-70
2022/09/28 09:20:54;;;;;;;2.30;0.60;;;;;;;;;;4953964;28;20055;-70
2022/09/28 09:23:27;;;;;;;0.50;0.50;;;;;;;;;;4989667;28;20104;-69
2022/09/28 09:25:55;;;;;;;0.60;0.60;;;;;;;;;;5014527;28;20169;-70
2022/09/28 09:28:22;;;;;;;1.77;0.90;;;;;;;;;;5013672;28;20395;-70
2022/09/28 09:31:00;;;;;;;0.40;0.40;;;;;;;;;;5014156;28;20111;-69
2022/09/28 09:33:27;;;;;;;4.60;0.80;;;;;;;;;;5008701;28;20065;-69
2022/09/28 09:35:53;;;;;;;2.45;0.50;;;;;;;;;;4995314;28;20059;-69
2022/09/28 09:38:26;;;;;;;0.82;0.60;;;;;;;;;;4994189;28;20062;-68
2022/09/28 09:40:58;;;;;;;2.20;0.50;;;;;;;;;;5026922;28;20061;-68
2022/09/28 09:43:25;;;;;;;1.05;0.40;;;;;;;;;;5010274;28;20544;-68
2022/09/28 09:46:13;;;;;;;0.52;0.52;;;;;;;;;;5014337;28;20050;-68
2022/09/28 09:48:47;;;;;;;0.85;0.35;;;;;;;;;;5013426;28;20514;-71
2022/09/28 09:51:25;;;;;;;0.82;0.60;;;;;;;;;;5014129;28;20081;-70
2022/09/28 09:53:58;;;;;;;1.23;0.68;;;;;;;;;;5014448;28;20576;-70
2022/09/28 09:56:29;;;;;;;1.00;0.70;;;;;;;;;;5010174;28;20054;-70
2022/09/28 09:58:58;;;;;;;0.25;0.20;;;;;;;;;;5013882;28;20050;-69
2022/09/28 10:01:33;;;;;;;0.17;0.15;;;;;;;;;;5014259;28;20613;-70
2022/09/28 10:04:01;;;;;;;1.45;0.40;;;;;;;;;;5012997;28;20533;-70
2022/09/28 10:06:32;;;;;;;1.25;0.22;;;;;;;;;;5012636;28;20043;-69
2022/09/28 10:09:17;;;;;;;0.50;0.30;;;;;;;;;;5012871;28;20054;-70
2022/09/28 10:11:46;;;;;;;3.13;0.50;;;;;;;;;;5013716;28;20057;-70
2022/09/28 10:14:15;;;;;;;1.20;0.30;;;;;;;;;;5013777;28;20058;-71
2022/09/28 10:16:52;;;;;;;0.43;0.28;;;;;;;;;;5002379;28;20063;-70
2022/09/28 10:19:20;;;;;;;1.08;0.45;;;;;;;;;;5014001;28;20059;-70
2022/09/28 10:21:49;;;;;;;0.20;0.20;;;;;;;;;;5011923;28;20597;-69
2022/09/28 10:24:27;;;;;;;0.98;0.35;;;;;;;;;;5013097;28;20554;-70
2022/09/28 10:26:54;;;;;;;0.88;0.25;;;;;;;;;;5010020;28;20499;-71
2022/09/28 10:29:23;;;;;;;0.30;0.30;;;;;;;;;;5013494;28;20117;-69
2022/09/28 10:31:50;;;;;;;0.32;0.30;;;;;;;;;;5013414;28;20050;-70
2022/09/28 10:34:18;;;;;;;2.20;0.20;;;;;;;;;;5001900;28;20059;-70
2022/09/28 10:36:47;;;;;;;0.57;0.35;;;;;;;;;;5013056;28;20058;-70
2022/09/28 10:39:34;;;;;;;1.25;0.30;;;;;;;;;;5012573;28;20058;-70
2022/09/28 10:42:03;;;;;;;0.73;0.38;;;;;;;;;;5010863;28;20062;-70
2022/09/28 10:44:32;;;;;;;0.20;0.20;;;;;;;;;;5013533;28;20062;-70
2022/09/28 10:47:00;;;;;;;2.47;0.38;;;;;;;;;;5010191;28;20050;-73
2022/09/28 10:49:29;;;;;;;3.13;1.55;;;;;;;;;;5009030;28;20495;-73
2022/09/28 10:51:55;;;;;;;0.70;0.38;;;;;;;;;;5005643;28;20065;-73
2022/09/28 10:54:23;;;;;;;0.47;0.35;;;;;;;;;;5011272;28;20065;-72
2022/09/28 10:56:50;;;;;;;0.40;0.40;;;;;;;;;;5008102;28;20058;-71
2022/09/28 10:59:28;;;;;;;0.80;0.50;;;;;;;;;;5013279;28;20046;-72
2022/09/28 11:02:00;;;;;;;1.85;0.50;;;;;;;;;;4997494;28;20058;-71
2022/09/28 11:04:28;;;;;;;0.65;0.43;;;;;;;;;;5000829;28;20137;-70
2022/09/28 11:06:57;;;;;;;0.70;0.43;;;;;;;;;;5015490;28;20054;-70
2022/09/28 11:09:29;;;;;;;0.40;0.38;;;;;;;;;;5018193;28;20060;-69
2022/09/28 11:11:57;;;;;;;0.60;0.60;;;;;;;;;;5015914;28;20146;-68
2022/09/28 11:14:26;;;;;;;1.85;0.73;;;;;;;;;;5012364;28;20113;-69
2022/09/28 11:17:11;;;;;;;0.90;0.80;;;;;;;;;;5012735;28;20116;-69
2022/09/28 11:19:37;;;;;;;1.20;0.95;;;;;;;;;;5004283;28;20566;-69
2022/09/28 11:22:19;;;;;;;0.50;0.50;;;;;;;;;;5012594;28;20940;-68
2022/09/28 11:24:46;;;;;;;2.45;1.00;;;;;;;;;;4995462;28;20055;-68
2022/09/28 11:27:18;;;;;;;0.50;0.50;;;;;;;;;;5006760;28;20109;-68
2022/09/28 11:29:51;;;;;;;0.50;0.50;;;;;;;;;;5011158;28;20050;-69
2022/09/28 11:32:18;;;;;;;1.17;0.68;;;;;;;;;;5012070;28;20058;-69
2022/09/28 11:34:46;;;;;;;0.63;0.50;;;;;;;;;;5011323;28;20517;-70
2022/09/28 11:37:34;;;;;;;1.15;0.40;;;;;;;;;;5001833;28;20050;-69
2022/09/28 11:40:36;;;;;;;0.52;0.52;;;;;;;;;;5012095;28;20518;-70
2022/09/28 11:43:29;;;;;;;0.90;0.70;;;;;;;;;;4960405;28;20055;-70
2022/09/28 11:46:13;;;;;;;1.85;0.65;;;;;;;;;;5009866;28;20050;-69
2022/09/28 11:48:46;;;;;;;1.30;0.60;;;;;;;;;;5012074;28;20051;-70
2022/09/28 11:51:38;;;;;;;0.40;0.40;;;;;;;;;;5010075;28;20058;-70
2022/09/28 11:54:13;;;;;;;0.60;0.50;;;;;;;;;;5010157;28;20058;-69
2022/09/28 11:56:44;;;;;;;0.70;0.70;;;;;;;;;;4999182;28;20054;-70
2022/09/28 11:59:19;;;;;;;3.28;0.75;;;;;;;;;;5009251;28;20058;-69
2022/09/28 12:01:54;;;;;;;0.47;0.40;;;;;;;;;;5010128;28;20151;-70
2022/09/28 12:04:23;;;;;;;2.58;0.75;;;;;;;;;;4999366;28;20078;-72
2022/09/28 12:07:03;;;;;;;3.72;0.50;;;;;;;;;;5009261;28;20564;-69
2022/09/28 12:09:55;;;;;;;1.30;0.52;;;;;;;;;;5008782;28;20102;-69
2022/09/28 12:12:25;;;;;;;1.02;0.68;;;;;;;;;;5003990;28;20108;-71
2022/09/28 12:14:53;;;;;;;0.73;0.43;;;;;;;;;;4998776;28;20050;-68
2022/09/28 12:17:31;;;;;;;0.93;0.32;;;;;;;;;;4999428;28;20499;-69
2022/09/28 12:20:04;;;;;;;0.20;0.20;;;;;;;;;;5005339;28;20058;-70
2022/09/28 12:22:33;;;;;;;1.67;0.32;;;;;;;;;;5012295;28;20063;-70
2022/09/28 12:25:00;;;;;;;1.67;0.75;;;;;;;;;;5010061;28;20113;-70
2022/09/28 12:27:31;;;;;;;6.20;1.98;;;;;;;;;;5011683;28;20062;-70
2022/09/28 12:30:12;;;;;;;4.45;1.42;;;;;;;;;;5011171;28;20054;-74
2022/09/28 12:32:43;;;;;;;1.25;0.55;;;;;;;;;;5011025;28;21075;-73
2022/09/28 12:35:13;;;;;;;4.75;0.95;;;;;;;;;;5009473;28;20137;-72
2022/09/28 12:37:58;;;;;;;2.67;0.60;;;;;;;;;;5009153;28;20054;-74
2022/09/28 12:40:35;;;;;;;3.37;1.13;;;;;;;;;;5015217;28;20109;-73
2022/09/28 12:43:16;;;;;;;4.93;1.17;;;;;;;;;;5015209;28;20060;-73
2022/09/28 12:45:58;;;;;;;3.33;1.10;;;;;;;;;;5014934;28;20053;-73
2022/09/28 12:48:52;;;;;;;1.02;0.60;;;;;;;;;;5014856;28;20054;-74
2022/09/28 12:51:59;;;;;;;1.63;0.85;;;;;;;;;;5013174;28;20145;-73
2022/09/28 12:54:25;;;;;;;1.45;0.70;;;;;;;;;;5006501;28;20081;-74
2022/09/28 12:56:54;;;;;;;1.17;0.85;;;;;;;;;;5014223;28;20850;-73
2022/09/28 12:59:33;;;;;;;1.13;0.65;;;;;;;;;;5012652;28;20561;-73
2022/09/28 13:02:18;;;;;;;0.70;0.70;;;;;;;;;;5014854;28;20490;-74
2022/09/28 13:04:44;;;;;;;1.08;0.80;;;;;;;;;;5011133;28;20059;-74
2022/09/28 13:07:26;;;;;;;0.50;0.50;;;;;;;;;;4995064;28;20050;-74
2022/09/28 13:09:59;;;;;;;0.82;0.70;;;;;;;;;;5004366;28;20058;-72
2022/09/28 13:12:40;;;;;;;1.40;0.85;;;;;;;;;;5014103;28;20074;-73
2022/09/28 13:15:22;;;;;;;0.68;0.68;;;;;;;;;;5015168;28;20101;-73
2022/09/28 13:18:05;;;;;;;0.95;0.70;;;;;;;;;;4999533;28;20569;-74
2022/09/28 13:20:48;;;;;;;3.08;0.90;;;;;;;;;;5013776;28;20105;-74
2022/09/28 13:23:20;;;;;;;0.73;0.65;;;;;;;;;;5013090;28;20109;-72
2022/09/28 13:25:49;;;;;;;0.55;0.55;;;;;;;;;;5012968;28;20054;-74
2022/09/28 13:28:18;;;;;;;1.95;1.08;;;;;;;;;;5013251;28;20054;-74
2022/09/28 13:30:49;;;;;;;1.67;0.80;;;;;;;;;;5011554;28;20138;-73
2022/09/28 13:33:18;;;;;;;1.45;0.85;;;;;;;;;;5012248;28;20050;-73
2022/09/28 13:35:45;;;;;;;1.35;1.00;;;;;;;;;;5011999;28;20110;-73
2022/09/28 13:38:15;;;;;;;0.65;0.65;;;;;;;;;;5014349;28;20058;-73
2022/09/28 13:41:00;;;;;;;1.55;0.80;;;;;;;;;;5013435;28;20046;-72
2022/09/28 13:43:32;;;;;;;0.60;0.60;;;;;;;;;;5014395;28;20058;-71
2022/09/28 13:46:02;;;;;;;1.50;0.68;;;;;;;;;;5013574;28;20222;-74
2022/09/28 13:49:00;;;;;;;1.92;0.57;;;;;;;;;;5014099;28;20051;-72
2022/09/28 13:51:54;;;;;;;0.73;0.40;;;;;;;;;;5000616;28;20055;-72
2022/09/28 13:54:36;;;;;;;0.73;0.50;;;;;;;;;;5005767;28;20062;-73
2022/09/28 13:57:09;;;;;;;0.77;0.50;;;;;;;;;;5011436;28;20581;-73
2022/09/28 13:59:45;;;;;;;0.77;0.50;;;;;;;;;;5013244;28;20054;-73
2022/09/28 14:02:30;;;;;;;1.10;0.40;;;;;;;;;;5013099;28;20046;-72
2022/09/28 14:05:16;;;;;;;0.40;0.40;;;;;;;;;;5012751;28;20086;-72
2022/09/28 14:08:01;;;;;;;1.98;0.50;;;;;;;;;;4993605;28;20059;-72
2022/09/28 14:10:48;;;;;;;0.83;0.40;;;;;;;;;;5012771;28;20495;-75
2022/09/28 14:13:34;;;;;;;0.70;0.50;;;;;;;;;;5015743;28;20270;-75
2022/09/28 14:16:19;;;;;;;2.90;0.50;;;;;;;;;;5012548;28;20050;-72
2022/09/28 14:19:05;;;;;;;1.30;0.40;;;;;;;;;;5012987;28;20053;-74
2022/09/28 14:21:43;;;;;;;0.30;0.30;;;;;;;;;;5012349;28;20108;-72
2022/09/28 14:24:17;;;;;;;0.38;0.38;;;;;;;;;;5010105;28;20051;-72
2022/09/28 14:26:50;;;;;;;0.68;0.40;;;;;;;;;;5012393;28;20061;-71
2022/09/28 14:29:27;;;;;;;2.40;0.60;;;;;;;;;;5014181;28;20062;-71
2022/09/28 14:31:55;;;;;;;1.30;0.50;;;;;;;;;;5013754;28;20051;-71
2022/09/28 14:34:23;;;;;;;1.33;0.75;;;;;;;;;;5011274;28;20058;-71
2022/09/28 14:42:27;;;;;;;0.57;0.57;;;;;;;;;;5013780;28;20058;-71
2022/09/28 14:45:03;;;;;;;2.08;0.80;;;;;;;;;;5006969;28;20050;-73
2022/09/28 14:47:37;;;;;;;1.45;0.43;;;;;;;;;;5012589;28;20059;-73
2022/09/28 14:50:18;;;;;;;1.88;0.60;;;;;;;;;;5012934;28;20058;-73
2022/09/28 14:52:50;;;;;;;0.50;0.40;;;;;;;;;;5013523;28;20520;-75
2022/09/28 14:55:18;;;;;;;0.55;0.55;;;;;;;;;;5012155;28;20062;-71
2022/09/28 14:57:50;;;;;;;0.43;0.40;;;;;;;;;;5012796;28;20062;-73
2022/09/28 15:00:21;;;;;;;1.60;0.68;;;;;;;;;;5012915;28;20133;-75
2022/09/28 15:02:51;;;;;;;0.82;0.40;;;;;;;;;;5011636;28;20557;-74
2022/09/28 15:05:27;;;;;;;1.02;0.73;;;;;;;;;;5010246;28;20062;-73
2022/09/28 15:07:53;;;;;;;1.45;0.73;;;;;;;;;;5012584;28;20109;-73
2022/09/28 15:10:34;;;;;;;0.65;0.65;;;;;;;;;;5012266;28;20573;-73
2022/09/28 15:13:02;;;;;;;1.83;1.00;;;;;;;;;;5011070;28;20604;-74
2022/09/28 15:15:28;;;;;;;2.75;1.75;;;;;;;;;;5012720;28;20226;-72
2022/09/28 15:18:15;;;;;;;1.05;0.82;;;;;;;;;;5013129;28;20399;-74